Time;durP1;ratioP1;P1;durP2;ratioP2;P2;SDS_P1;SDS_P2;PMS_P1;PMS_P2;Temp;Humidity;BMP_temperature;BMP_pressure;BME280_temperature;BME280_humidity;BME280_pressure;Samples;Min_cycle;Max_cycle;Signal;HPM_P1;HPM_P2
2021/11/10 00:02:05;;;;;;;34.17;11.32;;;;;;;5.76;75.00;102285.72;5062789;28;20044;-65
2021/11/10 00:04:32;;;;;;;20.50;8.32;;;;;;;5.77;74.96;102279.53;5047869;28;20048;-65
2021/11/10 00:06:59;;;;;;;21.27;8.35;;;;;;;5.71;74.82;102272.84;5074226;28;20048;-64
2021/11/10 00:09:26;;;;;;;22.85;8.85;;;;;;;5.74;74.69;102259.47;5072282;28;20041;-64
2021/11/10 00:11:54;;;;;;;22.35;9.07;;;;;;;5.68;74.98;102262.47;5072869;28;20110;-64
2021/11/10 00:14:22;;;;;;;22.00;9.07;;;;;;;5.68;75.06;102248.44;5073031;28;20040;-64
2021/11/10 00:16:48;;;;;;;21.45;9.02;;;;;;;5.69;74.97;102255.41;5071983;28;20052;-65
2021/11/10 00:19:15;;;;;;;23.38;9.70;;;;;;;5.58;75.04;102256.88;5071872;28;20037;-65
2021/11/10 00:21:42;;;;;;;23.27;8.45;;;;;;;5.66;75.22;102258.22;5073342;28;20104;-64
2021/11/10 00:24:08;;;;;;;20.67;8.88;;;;;;;5.63;75.26;102243.44;5060493;28;20037;-65
2021/11/10 00:26:35;;;;;;;25.05;8.70;;;;;;;5.62;74.92;102251.41;5053109;28;20044;-64
2021/11/10 00:29:03;;;;;;;24.73;9.18;;;;;;;5.58;75.92;102256.00;5068397;28;20048;-64
2021/11/10 00:31:32;;;;;;;20.17;8.32;;;;;;;5.58;75.08;102258.63;5051573;28;20469;-64
2021/11/10 00:33:59;;;;;;;20.00;8.60;;;;;;;5.54;75.63;102254.47;5069954;28;20055;-64
2021/11/10 00:36:25;;;;;;;19.23;8.45;;;;;;;5.48;76.01;102250.41;5055210;28;20044;-65
2021/11/10 00:38:52;;;;;;;22.05;8.80;;;;;;;5.46;76.25;102261.94;5071908;28;20493;-64
2021/11/10 00:41:19;;;;;;;22.63;9.05;;;;;;;5.44;76.42;102259.41;5072824;28;20060;-64
2021/11/10 00:43:46;;;;;;;20.48;8.52;;;;;;;5.42;76.77;102266.53;5072484;28;20090;-65
2021/11/10 00:46:13;;;;;;;17.30;8.32;;;;;;;5.36;75.80;102261.59;5072815;28;20044;-65
2021/11/10 00:48:40;;;;;;;26.58;9.00;;;;;;;5.30;76.18;102251.41;5038752;28;20131;-64
2021/11/10 00:51:07;;;;;;;22.10;9.18;;;;;;;5.25;76.74;102256.06;5055045;28;20045;-64
2021/11/10 00:53:34;;;;;;;30.90;9.77;;;;;;;5.21;77.10;102267.69;5072083;28;20044;-64
2021/11/10 00:56:02;;;;;;;20.02;8.70;;;;;;;5.29;77.26;102249.69;5072633;28;20052;-65
2021/11/10 00:58:30;;;;;;;20.83;8.85;;;;;;;5.30;77.11;102248.78;5072599;28;20063;-64
2021/11/10 01:00:57;;;;;;;19.42;8.18;;;;;;;5.30;nan;102254.03;5072894;28;20052;-64
2021/11/10 01:03:27;;;;;;;18.60;8.70;;;;;;;5.25;77.41;102250.78;5062891;28;20556;-64
2021/11/10 01:05:56;;;;;;;27.42;8.25;;;;;;;5.28;77.02;102248.84;5034005;28;20456;-64
2021/11/10 01:08:23;;;;;;;19.38;8.02;;;;;;;5.26;77.13;102245.44;5065619;28;20049;-65
2021/11/10 01:10:51;;;;;;;22.67;9.15;;;;;;;5.24;77.26;102252.59;5064776;28;20110;-65
2021/11/10 01:13:19;;;;;;;22.35;8.73;;;;;;;5.15;77.61;102242.56;5052331;28;20401;-64
2021/11/10 01:15:47;;;;;;;20.13;8.05;;;;;;;5.15;77.28;102235.50;5072534;28;20048;-64
2021/11/10 01:18:14;;;;;;;22.90;8.95;;;;;;;5.16;77.58;102238.97;5071933;28;20452;-65
2021/11/10 01:20:42;;;;;;;17.40;8.25;;;;;;;5.11;77.79;102233.97;5072527;28;20098;-65
2021/11/10 01:23:10;;;;;;;22.15;8.68;;;;;;;5.12;77.64;102233.03;5072009;28;20440;-64
2021/11/10 01:25:38;;;;;;;22.02;8.88;;;;;;;5.09;77.04;102230.56;5054529;28;20041;-64
2021/11/10 01:28:07;;;;;;;22.10;8.60;;;;;;;5.10;77.75;102228.78;5072324;28;20068;-64
2021/11/10 01:30:37;;;;;;;19.73;8.57;;;;;;;5.20;77.09;102227.34;5072122;28;20044;-64
2021/11/10 01:33:04;;;;;;;20.65;9.07;;;;;;;5.10;77.75;102224.38;5053319;28;20040;-65
2021/11/10 01:35:32;;;;;;;23.23;8.40;;;;;;;5.11;77.78;102220.81;5070943;28;20047;-65
2021/11/10 01:38:00;;;;;;;20.63;9.35;;;;;;;5.13;77.97;102223.34;5037367;28;20051;-65
2021/11/10 01:40:30;;;;;;;23.02;8.63;;;;;;;5.13;77.75;102225.97;5054280;28;20048;-65
2021/11/10 01:42:58;;;;;;;20.38;8.80;;;;;;;5.12;77.73;102217.25;5051903;28;20522;-65
2021/11/10 01:45:26;;;;;;;25.10;9.18;;;;;;;5.16;77.62;102207.41;5074136;28;20123;-64
2021/11/10 01:47:56;;;;;;;16.80;8.25;;;;;;;5.09;77.56;102214.75;5074438;28;20495;-64
2021/11/10 01:50:23;;;;;;;24.75;8.77;;;;;;;5.10;77.92;102223.53;5092194;28;20119;-64
2021/11/10 01:52:50;;;;;;;21.73;9.02;;;;;;;5.02;78.22;102213.44;5069125;28;20493;-64
2021/11/10 01:55:17;;;;;;;18.83;8.48;;;;;;;5.07;77.89;102207.91;5040142;28;20040;-64
2021/11/10 01:57:47;;;;;;;23.30;8.88;;;;;;;5.05;77.89;102202.72;5081978;28;20064;-64
2021/11/10 02:00:23;;;;;;;23.50;9.00;;;;;;;5.05;78.13;102199.25;5073294;28;20508;-64
2021/11/10 02:02:57;;;;;;;31.60;9.38;;;;;;;5.04;77.51;102192.28;5058141;28;20051;-65
2021/11/10 02:05:44;;;;;;;22.83;9.05;;;;;;;5.11;77.06;102184.00;5075318;28;20051;-64
2021/11/10 02:08:22;;;;;;;24.48;8.77;;;;;;;5.03;77.68;102190.59;5073442;28;20397;-64
2021/11/10 02:10:50;;;;;;;24.40;8.70;;;;;;;4.98;78.23;102202.22;5093767;28;20040;-65
2021/11/10 02:13:18;;;;;;;20.42;8.60;;;;;;;4.97;77.81;102199.66;5073958;28;20063;-65
2021/11/10 02:15:45;;;;;;;25.58;8.75;;;;;;;4.99;77.96;102201.28;5091751;28;20040;-64
2021/11/10 02:18:12;;;;;;;22.45;8.95;;;;;;;4.91;78.05;102192.97;5074108;28;20101;-64
2021/11/10 02:20:49;;;;;;;21.83;9.05;;;;;;;4.90;78.44;102196.50;5094887;28;20048;-65
2021/11/10 02:23:18;;;;;;;19.05;8.68;;;;;;;4.93;78.43;102192.84;5060933;28;20134;-64
2021/11/10 02:25:45;;;;;;;25.38;8.35;;;;;;;4.91;78.02;102195.59;5077789;28;20059;-64
2021/11/10 02:28:12;;;;;;;23.15;8.88;;;;;;;4.84;78.69;102191.59;5046481;28;20044;-64
2021/11/10 02:30:39;;;;;;;24.83;9.15;;;;;;;4.88;78.43;102194.91;5075082;28;20063;-64
2021/11/10 02:33:06;;;;;;;21.52;8.98;;;;;;;4.81;78.91;102192.56;5074701;28;20522;-64
2021/11/10 02:35:33;;;;;;;20.52;8.57;;;;;;;4.89;78.82;102186.06;5055109;28;20211;-65
2021/11/10 02:38:04;;;;;;;22.30;8.13;;;;;;;4.81;78.80;102174.16;5074871;28;20036;-64
2021/11/10 02:40:32;;;;;;;22.30;8.40;;;;;;;4.76;79.34;102181.44;5075099;28;20123;-64
2021/11/10 02:42:59;;;;;;;25.65;8.55;;;;;;;4.77;78.77;102177.06;5075204;28;20040;-64
2021/11/10 02:45:29;;;;;;;18.27;8.05;;;;;;;4.72;79.56;102192.22;5024793;28;20044;-64
2021/11/10 02:47:57;;;;;;;20.58;8.65;;;;;;;4.67;79.28;102197.69;5075270;28;20048;-64
2021/11/10 02:50:29;;;;;;;19.85;8.25;;;;;;;4.69;79.62;102192.38;5074893;28;20123;-64
2021/11/10 02:52:56;;;;;;;18.60;8.15;;;;;;;4.75;79.10;102185.03;5074491;28;20064;-65
2021/11/10 02:55:25;;;;;;;17.92;8.45;;;;;;;4.75;79.13;102192.06;5063913;28;20524;-65
2021/11/10 02:57:53;;;;;;;16.17;8.23;;;;;;;4.72;79.88;102200.09;5059490;28;20405;-65
2021/11/10 03:00:21;;;;;;;23.42;8.85;;;;;;;4.73;79.20;102199.16;5056910;28;20076;-65
2021/11/10 03:02:51;;;;;;;21.52;9.00;;;;;;;4.73;79.31;102201.78;5056878;28;20509;-65
2021/11/10 03:05:19;;;;;;;23.23;8.57;;;;;;;4.73;79.33;102204.41;5072775;28;20048;-65
2021/11/10 03:07:46;;;;;;;27.05;10.57;;;;;;;4.77;78.97;102198.94;5074964;28;20044;-65
2021/11/10 03:10:13;;;;;;;26.65;10.30;;;;;;;4.72;79.14;102211.47;5074580;28;20086;-65
2021/11/10 03:12:42;;;;;;;21.33;9.20;;;;;;;4.70;78.87;102205.44;5074520;28;20443;-65
2021/11/10 03:15:11;;;;;;;21.80;8.65;;;;;;;4.70;78.65;102199.34;5073877;28;20052;-65
2021/11/10 03:17:38;;;;;;;24.02;8.68;;;;;;;4.77;78.47;102206.81;5074392;28;20052;-65
2021/11/10 03:20:06;;;;;;;20.40;8.90;;;;;;;4.71;79.07;102195.75;5040115;28;20117;-65
2021/11/10 03:22:38;;;;;;;20.13;9.02;;;;;;;4.69;78.91;102205.50;5074430;28;20044;-65
2021/11/10 03:25:05;;;;;;;27.08;9.20;;;;;;;4.66;79.11;102196.03;5074296;28;20133;-65
2021/11/10 03:27:33;;;;;;;23.80;8.98;;;;;;;4.64;79.21;102194.38;5073903;28;20044;-65
2021/11/10 03:30:05;;;;;;;21.27;8.90;;;;;;;4.74;78.93;102192.97;5074142;28;20045;-66
2021/11/10 03:32:45;;;;;;;22.20;9.32;;;;;;;4.68;78.50;102196.78;5059962;28;20049;-65
2021/11/10 03:35:15;;;;;;;21.80;8.48;;;;;;;4.60;79.00;102202.44;5044579;28;20056;-65
2021/11/10 03:37:43;;;;;;;21.38;9.18;;;;;;;4.58;79.21;102203.44;5073818;28;20047;-65
2021/11/10 03:40:12;;;;;;;19.98;8.93;;;;;;;4.51;79.78;102209.94;5055689;28;20489;-66
2021/11/10 03:42:45;;;;;;;24.73;9.13;;;;;;;4.56;79.33;102200.88;5036171;28;20449;-65
2021/11/10 03:45:14;;;;;;;23.42;9.68;;;;;;;4.54;79.35;102201.91;5053941;28;20497;-66
2021/11/10 03:47:42;;;;;;;21.98;10.35;;;;;;;4.47;79.50;102203.16;5020150;28;20071;-65
2021/11/10 03:50:10;;;;;;;21.75;9.20;;;;;;;4.43;79.35;102208.56;5054006;28;20055;-65
2021/11/10 03:52:37;;;;;;;25.70;9.10;;;;;;;4.42;79.09;102217.38;5038259;28;20040;-65
2021/11/10 03:55:06;;;;;;;20.50;9.23;;;;;;;4.40;79.43;102214.00;5053728;28;20037;-64
2021/11/10 03:57:37;;;;;;;22.88;10.05;;;;;;;4.39;79.19;102211.44;5035137;28;20410;-64
2021/11/10 04:00:04;;;;;;;24.92;9.20;;;;;;;4.40;79.07;102208.72;5035698;28;20053;-64
2021/11/10 04:02:51;;;;;;;21.55;9.57;;;;;;;4.36;79.02;102203.69;5130224;27;20470;-65
2021/11/10 04:05:26;;;;;;;19.35;9.27;;;;;;;4.28;79.32;102208.50;5127515;28;20118;-65
2021/11/10 04:07:54;;;;;;;19.05;9.25;;;;;;;4.21;79.31;102206.16;5130610;27;20396;-65
2021/11/10 04:10:22;;;;;;;23.58;10.00;;;;;;;4.10;79.89;102195.34;5130550;27;20043;-64
2021/11/10 04:12:50;;;;;;;22.67;9.80;;;;;;;4.07;79.78;102197.28;5130404;27;20055;-65
2021/11/10 04:15:19;;;;;;;27.05;9.70;;;;;;;4.07;79.73;102192.88;5130420;27;20036;-65
2021/11/10 04:17:46;;;;;;;25.02;9.35;;;;;;;4.08;79.97;102185.88;5128947;28;20051;-65
2021/11/10 04:20:13;;;;;;;24.42;9.65;;;;;;;4.07;80.08;102182.38;5130215;27;20096;-65
2021/11/10 04:22:40;;;;;;;20.67;9.60;;;;;;;4.03;80.63;102194.78;5129181;28;20039;-65
2021/11/10 04:25:09;;;;;;;21.08;9.77;;;;;;;4.03;80.55;102184.28;5129180;28;20192;-66
2021/11/10 04:27:36;;;;;;;24.00;9.23;;;;;;;3.92;80.79;102183.13;5102625;28;20051;-65
2021/11/10 04:30:05;;;;;;;19.35;9.32;;;;;;;4.00;80.68;102189.72;5129615;27;20496;-63
2021/11/10 04:32:34;;;;;;;19.55;10.60;;;;;;;3.95;80.96;102202.22;5129786;27;20035;-63
2021/11/10 04:35:02;;;;;;;24.27;9.93;;;;;;;3.94;81.28;102194.41;5130230;27;20547;-63
2021/11/10 04:37:30;;;;;;;20.13;9.95;;;;;;;3.95;81.01;102201.38;5125823;27;20374;-64
2021/11/10 04:39:58;;;;;;;20.52;9.93;;;;;;;3.89;81.32;102207.75;5109306;28;20040;-63
2021/11/10 04:42:26;;;;;;;24.08;10.13;;;;;;;3.93;80.84;102200.56;5107928;28;20074;-64
2021/11/10 04:45:02;;;;;;;27.75;10.77;;;;;;;3.89;80.98;102197.25;5109349;28;20052;-64
2021/11/10 04:47:30;;;;;;;27.20;10.32;;;;;;;3.84;81.21;102201.91;5109432;28;20044;-64
2021/11/10 04:49:57;;;;;;;36.53;10.55;;;;;;;3.84;81.00;102176.50;5109049;28;20048;-64
2021/11/10 04:52:25;;;;;;;22.35;9.52;;;;;;;3.75;80.98;102179.56;5108145;28;20035;-64
2021/11/10 04:54:53;;;;;;;26.23;9.98;;;;;;;3.84;81.15;102170.41;5110045;28;20044;-64
2021/11/10 04:57:20;;;;;;;23.92;10.07;;;;;;;3.81;80.90;102167.91;5128387;28;20051;-64
2021/11/10 04:59:48;;;;;;;25.23;10.15;;;;;;;3.80;80.89;102177.56;5129673;27;20046;-64
2021/11/10 05:04:46;;;;;;;22.65;10.20;;;;;;;3.81;80.94;102186.28;5126786;27;20437;-64
2021/11/10 05:07:14;;;;;;;22.63;10.88;;;;;;;3.92;80.61;102188.38;5129584;28;20517;-64
2021/11/10 05:09:42;;;;;;;19.55;9.90;;;;;;;3.84;80.70;102171.25;5129035;27;20101;-64
2021/11/10 05:12:10;;;;;;;23.60;9.93;;;;;;;3.84;80.75;102160.72;5109797;28;20054;-64
2021/11/10 05:14:40;;;;;;;25.77;10.35;;;;;;;3.82;80.56;102159.97;5114086;28;20046;-64
2021/11/10 05:17:06;;;;;;;20.10;10.20;;;;;;;3.87;80.31;102153.63;5115688;28;20046;-63
2021/11/10 05:19:33;;;;;;;20.90;10.10;;;;;;;3.82;80.38;102143.34;5116007;28;20063;-64
2021/11/10 05:22:00;;;;;;;26.52;10.88;;;;;;;3.79;80.75;102146.13;5109113;28;20084;-64
2021/11/10 05:24:28;;;;;;;26.38;10.55;;;;;;;3.83;80.63;102145.91;5111194;28;20515;-64
2021/11/10 05:26:55;;;;;;;25.13;10.10;;;;;;;3.81;80.47;102154.78;5097575;28;20044;-64
2021/11/10 05:29:22;;;;;;;21.83;10.35;;;;;;;3.80;81.40;102164.44;5097127;28;20062;-64
2021/11/10 05:31:49;;;;;;;19.17;9.70;;;;;;;3.83;80.85;102171.31;5113611;28;20043;-64
2021/11/10 05:34:16;;;;;;;27.92;10.63;;;;;;;3.81;81.29;102168.75;5115637;28;20039;-63
2021/11/10 05:36:42;;;;;;;23.75;10.50;;;;;;;3.83;81.14;102176.56;5113576;28;20389;-64
2021/11/10 05:39:09;;;;;;;25.25;10.05;;;;;;;3.82;81.18;102194.09;5113816;28;20055;-66
2021/11/10 05:41:36;;;;;;;25.30;11.13;;;;;;;3.83;80.99;102200.19;5115169;28;20035;-64
2021/11/10 05:44:03;;;;;;;23.13;10.13;;;;;;;3.82;81.07;102186.22;5114630;28;20054;-64
2021/11/10 05:46:29;;;;;;;21.92;10.30;;;;;;;3.80;81.13;102185.44;5113854;28;20036;-64
2021/11/10 05:48:56;;;;;;;26.25;10.38;;;;;;;3.56;81.27;102170.88;5115170;28;20039;-63
2021/11/10 05:51:23;;;;;;;25.05;11.13;;;;;;;3.63;81.25;102183.63;5113451;28;20044;-63
2021/11/10 05:53:51;;;;;;;24.30;10.40;;;;;;;3.67;81.30;102186.09;5121076;27;20039;-63
2021/11/10 05:56:20;;;;;;;20.58;9.90;;;;;;;3.69;80.99;102179.00;5116825;27;20045;-64
2021/11/10 05:58:48;;;;;;;20.85;10.48;;;;;;;3.47;81.80;102156.41;5133403;27;20043;-65
2021/11/10 06:01:16;;;;;;;24.25;11.05;;;;;;;3.57;81.27;102149.81;5133743;27;20104;-64
2021/11/10 06:03:42;;;;;;;24.70;10.95;;;;;;;3.64;80.66;102150.38;5125165;27;20055;-65
2021/11/10 06:06:09;;;;;;;32.60;10.98;;;;;;;3.66;81.11;102159.03;5110427;27;20065;-64
2021/11/10 06:08:37;;;;;;;27.48;12.70;;;;;;;3.65;81.14;102152.91;5114636;28;20039;-64
2021/11/10 06:11:07;;;;;;;20.67;10.57;;;;;;;3.72;81.16;102152.63;5114611;28;20126;-64
2021/11/10 06:13:35;;;;;;;28.60;10.90;;;;;;;3.69;80.64;102169.34;5113094;28;20561;-64
2021/11/10 06:16:03;;;;;;;23.17;10.52;;;;;;;3.74;80.94;102164.72;5114502;28;20089;-64
2021/11/10 06:18:30;;;;;;;26.15;11.80;;;;;;;3.74;81.06;102156.84;5112832;28;20066;-64
2021/11/10 06:20:58;;;;;;;24.13;10.88;;;;;;;3.72;80.33;102158.72;5112705;28;20035;-64
2021/11/10 06:23:25;;;;;;;24.30;10.75;;;;;;;3.72;80.42;102165.75;5109684;28;20036;-63
2021/11/10 06:25:52;;;;;;;24.00;10.70;;;;;;;3.72;80.47;102163.13;5099161;28;20488;-64
2021/11/10 06:28:19;;;;;;;23.90;10.43;;;;;;;3.67;80.82;102171.19;5093569;28;20075;-64
2021/11/10 06:30:46;;;;;;;23.67;11.13;;;;;;;3.69;80.73;102166.72;5093525;28;20048;-64
2021/11/10 06:33:13;;;;;;;24.92;11.02;;;;;;;3.69;80.28;102166.72;5090392;28;20050;-65
2021/11/10 06:35:39;;;;;;;25.83;11.05;;;;;;;3.70;80.84;102157.94;5105380;28;20496;-64
2021/11/10 06:38:06;;;;;;;24.50;11.60;;;;;;;3.60;80.99;102146.19;5113626;28;20063;-64
2021/11/10 06:40:33;;;;;;;31.77;11.38;;;;;;;3.55;81.51;102163.94;5112309;28;20116;-64
2021/11/10 06:43:00;;;;;;;27.33;10.43;;;;;;;3.62;81.77;102167.94;5114190;28;20036;-64
2021/11/10 06:45:26;;;;;;;26.92;11.13;;;;;;;3.62;81.81;102174.06;5111877;28;20132;-64
2021/11/10 06:47:53;;;;;;;29.42;12.02;;;;;;;3.67;81.82;102171.19;5113365;28;20563;-64
2021/11/10 06:50:20;;;;;;;30.95;12.18;;;;;;;3.66;81.42;102164.28;5113155;27;20047;-64
2021/11/10 06:52:47;;;;;;;25.45;11.57;;;;;;;3.79;81.26;102169.75;5112898;28;20051;-64
2021/11/10 06:55:14;;;;;;;31.23;12.18;;;;;;;3.82;81.11;102162.59;5111413;28;20040;-64
2021/11/10 06:57:40;;;;;;;34.78;13.60;;;;;;;3.85;81.14;102161.56;5111852;28;20143;-63
2021/11/10 07:00:10;;;;;;;34.55;12.88;;;;;;;3.81;80.50;102160.03;5111186;28;20036;-63
2021/11/10 07:02:37;;;;;;;32.60;12.63;;;;;;;3.74;80.60;102158.63;5095465;28;20067;-64
2021/11/10 07:05:10;;;;;;;27.25;12.20;;;;;;;3.82;81.09;102159.97;5111540;28;20088;-63
2021/11/10 07:07:37;;;;;;;30.13;12.05;;;;;;;3.78;80.38;102168.06;5108868;28;20126;-63
2021/11/10 07:10:05;;;;;;;27.65;11.63;;;;;;;3.85;80.51;102166.81;5108990;28;20140;-64
2021/11/10 07:12:32;;;;;;;32.03;11.63;;;;;;;3.85;80.45;102178.16;5111311;28;20092;-63
2021/11/10 07:14:58;;;;;;;28.98;11.07;;;;;;;3.89;79.86;102176.25;5105884;28;20051;-65
2021/11/10 07:17:25;;;;;;;28.08;11.10;;;;;;;3.89;80.08;102183.28;5084581;28;20051;-63
2021/11/10 07:19:52;;;;;;;24.75;12.10;;;;;;;3.94;80.42;102191.78;5111532;28;20032;-64
2021/11/10 07:22:20;;;;;;;29.15;11.57;;;;;;;3.94;80.48;102183.91;5112926;28;20040;-64
2021/11/10 07:24:47;;;;;;;26.85;11.63;;;;;;;4.04;79.83;102174.66;5115845;27;20130;-64
2021/11/10 07:27:14;;;;;;;33.33;10.60;;;;;;;4.02;80.01;102189.63;5112949;27;20114;-64
2021/11/10 07:29:40;;;;;;;29.15;11.90;;;;;;;4.00;80.04;102197.59;5078147;28;20067;-64
2021/11/10 07:32:07;;;;;;;29.23;11.57;;;;;;;4.02;80.09;102210.63;5107657;27;20032;-64
2021/11/10 07:34:35;;;;;;;34.72;11.65;;;;;;;4.10;79.70;102213.75;5102115;27;20172;-64
2021/11/10 07:37:03;;;;;;;26.48;11.63;;;;;;;4.18;79.61;102210.72;5112424;27;20045;-64
2021/11/10 07:39:31;;;;;;;27.30;10.57;;;;;;;4.12;80.00;102206.63;5116194;27;20513;-64
2021/11/10 07:41:58;;;;;;;24.60;10.98;;;;;;;4.21;79.79;102213.22;5109421;28;20058;-64
2021/11/10 07:44:26;;;;;;;25.73;10.45;;;;;;;4.20;79.84;102215.00;5112182;27;20491;-64
2021/11/10 07:46:55;;;;;;;25.88;10.85;;;;;;;4.22;79.90;102220.13;5098116;28;20415;-65
2021/11/10 07:49:23;;;;;;;28.52;12.52;;;;;;;4.31;79.92;102224.09;5118113;27;20039;-64
2021/11/10 07:51:50;;;;;;;22.55;10.88;;;;;;;4.31;80.11;102238.09;5110946;27;20036;-65
2021/11/10 07:54:18;;;;;;;23.95;10.25;;;;;;;4.37;79.10;102250.91;5107153;28;20408;-64
2021/11/10 07:56:46;;;;;;;28.60;10.57;;;;;;;4.46;79.24;102243.47;5112520;27;20039;-64
2021/11/10 07:59:12;;;;;;;20.65;10.25;;;;;;;4.46;79.17;102249.63;5110270;28;20039;-64
2021/11/10 08:01:39;;;;;;;20.27;9.93;;;;;;;4.50;78.84;102250.31;5109551;28;20052;-64
2021/11/10 08:04:06;;;;;;;25.55;9.90;;;;;;;4.51;78.60;102252.00;5119135;28;20059;-64
2021/11/10 08:06:33;;;;;;;17.75;9.68;;;;;;;4.50;78.37;102248.53;5116709;28;20043;-65
2021/11/10 08:09:01;;;;;;;19.95;9.35;;;;;;;4.45;77.91;102255.78;5115278;28;20050;-65
2021/11/10 08:11:27;;;;;;;21.05;9.68;;;;;;;4.54;77.75;102257.09;5102317;28;20488;-65
2021/11/10 08:13:54;;;;;;;19.05;9.15;;;;;;;4.63;77.80;102253.16;5111401;28;20048;-64
2021/11/10 08:16:21;;;;;;;19.30;9.00;;;;;;;4.76;76.71;102252.44;5123747;28;20047;-64
2021/11/10 08:18:48;;;;;;;21.60;9.40;;;;;;;4.73;76.88;102249.09;5109699;28;20042;-64
2021/11/10 08:21:16;;;;;;;21.05;9.63;;;;;;;4.76;77.32;102241.91;5108472;28;20088;-64
2021/11/10 08:23:43;;;;;;;25.90;10.30;;;;;;;4.84;77.14;102246.81;5109246;28;20040;-64
2021/11/10 08:26:10;;;;;;;23.38;10.15;;;;;;;4.94;76.26;102245.38;5109858;28;20435;-64
2021/11/10 08:28:37;;;;;;;27.90;11.15;;;;;;;4.93;76.51;102237.56;5115932;28;20039;-64
2021/11/10 08:31:04;;;;;;;28.08;10.75;;;;;;;4.94;76.74;102242.75;5117705;28;20046;-64
2021/11/10 08:33:31;;;;;;;35.80;12.63;;;;;;;4.78;76.78;102242.72;5117885;28;20039;-64
2021/11/10 08:35:58;;;;;;;23.75;11.15;;;;;;;4.97;76.27;102239.97;5108923;28;20067;-64
2021/11/10 08:38:27;;;;;;;23.00;11.15;;;;;;;5.03;76.97;102249.31;5109630;28;20069;-64
2021/11/10 08:40:54;;;;;;;24.95;10.48;;;;;;;5.14;76.93;102243.47;5117758;28;20047;-64
2021/11/10 08:43:21;;;;;;;25.77;11.13;;;;;;;5.21;76.35;102252.75;5101307;28;20081;-64
2021/11/10 08:45:53;;;;;;;22.65;10.55;;;;;;;5.34;76.16;102251.13;5111074;28;20066;-64
2021/11/10 08:48:22;;;;;;;25.20;11.45;;;;;;;5.38;76.17;102249.19;5114200;27;20055;-64
2021/11/10 08:50:49;;;;;;;21.48;10.02;;;;;;;5.37;75.68;102258.88;5114253;27;20492;-64
2021/11/10 08:53:19;;;;;;;24.05;11.45;;;;;;;5.33;75.50;102249.44;5114294;27;20035;-64
2021/11/10 08:55:47;;;;;;;27.90;11.35;;;;;;;5.29;76.30;102252.31;5110554;27;20499;-64
2021/11/10 08:58:14;;;;;;;32.65;11.40;;;;;;;5.37;76.92;102258.03;5108282;28;20039;-65
2021/11/10 09:00:42;;;;;;;29.38;11.57;;;;;;;5.45;76.55;102261.06;5115940;27;20047;-64
2021/11/10 09:03:09;;;;;;;28.33;11.95;;;;;;;5.58;75.18;102251.59;5122156;27;20118;-64
2021/11/10 09:05:36;;;;;;;24.55;11.60;;;;;;;5.53;75.77;102256.25;5092668;28;20471;-64
2021/11/10 09:08:04;;;;;;;26.23;12.23;;;;;;;5.64;74.92;102260.06;5112089;27;20040;-64
2021/11/10 09:10:33;;;;;;;28.67;12.85;;;;;;;5.75;75.20;102258.56;5119950;27;20457;-64
2021/11/10 09:13:01;;;;;;;28.38;11.95;;;;;;;5.81;75.21;102251.25;5112935;28;20086;-64
2021/11/10 09:15:31;;;;;;;28.70;12.73;;;;;;;5.82;74.91;102248.53;5113546;28;20047;-63
2021/11/10 09:18:01;;;;;;;28.60;12.75;;;;;;;5.94;74.89;102246.97;5102058;28;20423;-66
2021/11/10 09:20:29;;;;;;;27.73;13.05;;;;;;;6.04;74.71;102248.19;5113732;28;20048;-64
2021/11/10 09:22:58;;;;;;;30.52;13.82;;;;;;;6.23;73.58;102247.13;5115047;28;20063;-65
2021/11/10 09:25:27;;;;;;;27.90;14.43;;;;;;;6.29;73.73;102233.59;5114332;28;20420;-65
2021/11/10 09:27:56;;;;;;;37.33;13.48;;;;;;;6.30;73.77;102233.50;5096703;28;20044;-65
2021/11/10 09:30:26;;;;;;;29.25;13.18;;;;;;;6.27;74.39;102231.03;5115189;28;20051;-65
2021/11/10 09:32:55;;;;;;;33.13;13.85;;;;;;;6.35;74.27;102235.88;5114590;28;20118;-65
2021/11/10 09:35:23;;;;;;;26.83;12.88;;;;;;;6.43;73.92;102233.63;5112315;28;20043;-64
2021/11/10 09:37:52;;;;;;;26.80;13.55;;;;;;;6.60;73.78;102237.03;5097356;28;20055;-64
2021/11/10 09:40:22;;;;;;;32.03;13.73;;;;;;;6.84;73.22;102240.88;5113663;28;20047;-64
2021/11/10 09:42:49;;;;;;;31.25;14.57;;;;;;;6.97;71.86;102240.09;5097144;28;20046;-64
2021/11/10 09:45:19;;;;;;;25.73;13.45;;;;;;;6.85;72.22;102226.72;5115118;28;20048;-65
2021/11/10 09:47:47;;;;;;;33.67;13.35;;;;;;;6.95;72.35;102219.09;5115217;28;20079;-64
2021/11/10 09:50:18;;;;;;;27.65;13.60;;;;;;;7.01;72.00;102212.59;5112753;28;20043;-64
2021/11/10 09:52:46;;;;;;;28.80;12.90;;;;;;;7.04;72.67;102220.31;5094805;28;20122;-64
2021/11/10 09:55:16;;;;;;;33.13;14.45;;;;;;;7.20;72.40;102218.41;5097831;28;20036;-63
2021/11/10 09:57:45;;;;;;;24.92;13.05;;;;;;;7.47;71.28;102223.72;5115091;28;20094;-64
2021/11/10 10:00:16;;;;;;;27.40;12.70;;;;;;;7.63;70.53;102225.41;5111380;28;20031;-64
2021/11/10 10:02:46;;;;;;;30.17;14.43;;;;;;;7.90;67.95;102220.13;5107943;28;20047;-64
2021/11/10 10:05:16;;;;;;;26.85;13.00;;;;;;;7.89;68.86;102213.16;5092894;28;20075;-64
2021/11/10 10:07:47;;;;;;;27.08;13.43;;;;;;;7.78;69.46;102210.38;5107842;28;20518;-64
2021/11/10 10:10:16;;;;;;;31.50;13.98;;;;;;;8.00;69.81;102209.81;5113418;28;20412;-64
2021/11/10 10:12:43;;;;;;;34.58;14.63;;;;;;;8.40;67.18;102210.66;5114541;28;20032;-64
2021/11/10 10:15:11;;;;;;;30.63;14.20;;;;;;;8.32;67.95;102215.59;5113192;28;20397;-64
2021/11/10 10:17:43;;;;;;;30.67;14.63;;;;;;;8.32;68.20;102223.53;5113923;28;20046;-64
2021/11/10 10:20:29;;;;;;;;;;;;;;;8.48;67.37;102214.56;5114326;28;20044;-64
2021/11/10 10:23:02;;;;;;;27.75;14.10;;;;;;;8.62;67.50;102211.84;5114374;28;19961;-64
2021/11/10 10:25:40;;;;;;;31.92;13.98;;;;;;;8.75;68.03;102209.19;5110091;28;20511;-64
2021/11/10 10:28:11;;;;;;;29.88;14.27;;;;;;;8.65;66.76;102214.28;5111730;28;20039;-64
2021/11/10 10:30:45;;;;;;;30.02;14.43;;;;;;;8.90;66.52;102218.72;5093954;28;20127;-64
2021/11/10 10:33:17;;;;;;;35.08;14.60;;;;;;;8.96;66.78;102212.97;5089419;28;20045;-64
2021/11/10 10:35:51;;;;;;;37.20;14.70;;;;;;;8.95;67.06;102215.72;5110504;28;20126;-64
2021/11/10 10:38:21;;;;;;;31.52;14.50;;;;;;;9.16;66.83;102213.38;5097936;28;20167;-64
2021/11/10 10:40:51;;;;;;;31.05;15.85;;;;;;;9.31;66.87;102212.28;5113870;28;20043;-64
2021/11/10 10:43:20;;;;;;;32.75;15.23;;;;;;;9.84;64.93;102197.91;5110248;28;20389;-64
2021/11/10 10:45:49;;;;;;;33.92;15.60;;;;;;;10.79;62.00;102185.41;5103894;28;20500;-64
2021/11/10 10:48:23;;;;;;;29.50;14.65;;;;;;;11.85;59.19;102198.13;5110119;28;20122;-64
2021/11/10 10:50:55;;;;;;;34.03;16.00;;;;;;;12.76;56.32;102197.63;5110375;28;20049;-64
2021/11/10 10:53:50;;;;;;;31.27;14.73;;;;;;;12.77;55.44;102207.28;5111264;28;20047;-64
2021/11/10 10:56:25;;;;;;;31.25;15.25;;;;;;;12.57;55.74;102207.22;5110777;28;20135;-64
2021/11/10 10:58:58;;;;;;;34.17;15.20;;;;;;;12.17;57.29;102207.94;5113724;28;20044;-64
2021/11/10 11:01:29;;;;;;;30.23;15.27;;;;;;;11.81;56.76;102209.97;5112549;28;20052;-64
2021/11/10 11:04:01;;;;;;;31.10;14.48;;;;;;;11.61;58.29;102205.47;5108263;28;20118;-64
2021/11/10 11:06:48;;;;;;;;;;;;;;;11.30;59.46;102207.94;5092510;28;20128;-64
2021/11/10 11:09:20;;;;;;;30.77;15.38;;;;;;;10.90;60.51;102213.75;5106516;28;19923;-64
2021/11/10 11:11:56;;;;;;;;;;;;;;;10.72;60.65;102208.91;5111701;28;20074;-64
2021/11/10 11:15:02;;;;;;;33.17;15.68;;;;;;;10.68;61.67;102209.28;5110732;27;20034;-64
2021/11/10 11:17:31;;;;;;;33.38;15.60;;;;;;;10.51;62.60;102219.38;5108948;28;20039;-64
2021/11/10 11:20:08;;;;;;;37.58;15.45;;;;;;;10.41;63.04;102221.03;5112200;28;20042;-64
2021/11/10 11:22:50;;;;;;;29.20;15.57;;;;;;;10.21;63.34;102217.22;5109726;28;20143;-65
2021/11/10 11:25:20;;;;;;;35.15;16.17;;;;;;;10.42;63.21;102222.72;5111749;28;20130;-64
2021/11/10 11:28:10;;;;;;;37.80;16.70;;;;;;;10.39;61.85;102222.97;5112973;27;20043;-64
2021/11/10 11:30:40;;;;;;;33.60;16.52;;;;;;;10.66;61.87;102225.31;5111234;28;20044;-64
2021/11/10 11:33:10;;;;;;;29.80;14.20;;;;;;;10.82;59.72;102221.47;5112446;28;20047;-64